Time;durP1;ratioP1;P1;durP2;ratioP2;P2;SDS_P1;SDS_P2;PMS_P1;PMS_P2;Temp;Humidity;BMP_temperature;BMP_pressure;BME280_temperature;BME280_humidity;BME280_pressure;Samples;Min_cycle;Max_cycle;Signal;HPM_P1;HPM_P2
2021/11/30 00:02:05;;;;;;;3.40;2.53;;;5.30;99.90;;;;;;5009374;28;20504;-69
2021/11/30 00:04:32;;;;;;;4.93;3.37;;;5.20;99.90;;;;;;5001524;28;20549;-67
2021/11/30 00:07:01;;;;;;;2.20;2.00;;;5.20;99.90;;;;;;5007046;28;20432;-67
2021/11/30 00:12:17;;;;;;;3.80;2.90;;;5.00;99.90;;;;;;4999028;28;20489;-69
2021/11/30 00:14:48;;;;;;;3.53;2.47;;;5.00;99.90;;;;;;5010531;28;20517;-68
2021/11/30 00:17:15;;;;;;;13.03;3.17;;;5.00;99.90;;;;;;5011382;28;20483;-67
2021/11/30 00:19:43;;;;;;;5.00;3.90;;;4.90;99.90;;;;;;5000174;28;20463;-66
2021/11/30 00:22:12;;;;;;;3.97;2.60;;;4.90;99.90;;;;;;5014218;28;20448;-66
2021/11/30 00:24:39;;;;;;;4.27;3.40;;;4.90;99.90;;;;;;5009406;28;20462;-66
2021/11/30 00:27:06;;;;;;;6.70;3.87;;;5.00;99.90;;;;;;5010702;28;20468;-68
2021/11/30 00:29:35;;;;;;;3.20;2.10;;;5.00;99.90;;;;;;4998049;28;20471;-68
2021/11/30 00:32:03;;;;;;;4.93;3.67;;;5.00;99.90;;;;;;5013928;28;20431;-67
2021/11/30 00:34:30;;;;;;;5.50;3.73;;;5.10;99.90;;;;;;5012347;28;20456;-67
2021/11/30 00:36:58;;;;;;;10.83;4.33;;;5.00;99.90;;;;;;5016918;28;20557;-68
2021/11/30 00:39:25;;;;;;;6.80;4.20;;;5.00;99.90;;;;;;5012073;28;20443;-68
2021/11/30 00:41:54;;;;;;;8.67;5.50;;;5.00;99.90;;;;;;5026820;28;20439;-66
2021/11/30 00:44:24;;;;;;;5.50;4.53;;;5.10;99.90;;;;;;5003049;28;21256;-68
2021/11/30 00:46:54;;;;;;;4.83;4.20;;;5.10;99.90;;;;;;5011187;28;20510;-68
2021/11/30 00:49:21;;;;;;;3.83;3.43;;;5.10;99.90;;;;;;5010377;28;20746;-68
2021/11/30 00:51:50;;;;;;;10.17;4.70;;;5.10;99.90;;;;;;5010332;28;20505;-69
2021/11/30 00:54:19;;;;;;;4.87;3.60;;;5.00;99.90;;;;;;5012590;28;20552;-68
2021/11/30 00:56:49;;;;;;;5.57;3.97;;;4.90;99.90;;;;;;5014521;28;20467;-68
2021/11/30 00:59:16;;;;;;;4.10;3.70;;;4.90;99.90;;;;;;5005443;28;20435;-69
2021/11/30 01:01:45;;;;;;;2.60;2.40;;;5.00;99.90;;;;;;5011735;28;20477;-68
2021/11/30 01:04:13;;;;;;;3.90;2.97;;;5.10;99.90;;;;;;5008852;28;20538;-68
2021/11/30 01:06:41;;;;;;;1.40;1.20;;;5.00;99.90;;;;;;4986937;28;20516;-67
2021/11/30 01:09:09;;;;;;;2.30;1.87;;;5.00;99.90;;;;;;5013786;28;20982;-66
2021/11/30 01:11:37;;;;;;;3.30;2.37;;;4.90;99.90;;;;;;5008782;28;20490;-68
2021/11/30 01:14:05;;;;;;;3.70;3.40;;;4.90;99.90;;;;;;5012872;28;20507;-67
2021/11/30 01:16:33;;;;;;;4.00;3.23;;;4.90;99.90;;;;;;5007407;28;20460;-68
2021/11/30 01:19:00;;;;;;;5.53;2.43;;;4.80;99.90;;;;;;5007000;28;20456;-69
2021/11/30 01:21:29;;;;;;;8.70;4.00;;;4.80;99.90;;;;;;5004528;28;20469;-69
2021/11/30 01:23:56;;;;;;;7.77;3.33;;;4.90;99.90;;;;;;5009105;28;20922;-68
2021/11/30 01:26:23;;;;;;;4.80;3.47;;;4.90;99.90;;;;;;4996319;28;20543;-68
2021/11/30 01:28:50;;;;;;;3.97;2.70;;;4.80;99.90;;;;;;5013116;28;20794;-69
2021/11/30 01:31:17;;;;;;;3.30;2.73;;;4.80;99.90;;;;;;4997209;28;20480;-67
2021/11/30 01:33:44;;;;;;;3.43;1.97;;;4.70;99.90;;;;;;5019980;28;20507;-67
2021/11/30 01:36:11;;;;;;;5.20;2.73;;;4.70;99.90;;;;;;5004222;28;20498;-68
2021/11/30 01:38:40;;;;;;;8.80;4.93;;;4.60;99.90;;;;;;5010318;28;20438;-68
2021/11/30 01:41:08;;;;;;;5.27;4.50;;;4.70;99.90;;;;;;5009212;28;20480;-68
2021/11/30 01:43:40;;;;;;;5.80;3.07;;;4.80;99.90;;;;;;5017456;28;21205;-67
2021/11/30 01:46:11;;;;;;;9.27;5.33;;;4.70;99.90;;;;;;5000720;28;20506;-67
2021/11/30 01:51:24;;;;;;;3.27;2.97;;;4.70;99.90;;;;;;4996422;28;20460;-67
2021/11/30 01:53:53;;;;;;;10.43;3.70;;;4.60;99.90;;;;;;5009377;28;20482;-67
2021/11/30 01:56:21;;;;;;;1.40;1.30;;;4.60;99.90;;;;;;5012751;28;20471;-66
2021/11/30 01:58:49;;;;;;;7.00;4.27;;;4.60;99.90;;;;;;5022066;28;20460;-69
2021/11/30 02:01:17;;;;;;;3.20;2.47;;;4.60;99.90;;;;;;5005160;28;20946;-68
2021/11/30 02:03:44;;;;;;;6.23;4.53;;;4.50;99.90;;;;;;5007162;28;20586;-68
2021/11/30 02:06:11;;;;;;;6.63;2.43;;;4.50;99.90;;;;;;5004096;28;20487;-67
2021/11/30 02:08:38;;;;;;;5.93;4.67;;;4.50;99.90;;;;;;5012564;28;20453;-68
2021/11/30 02:11:07;;;;;;;4.20;2.70;;;4.60;99.90;;;;;;5007337;28;20873;-68
2021/11/30 02:13:34;;;;;;;5.57;2.90;;;4.70;99.90;;;;;;5019107;28;20467;-67
2021/11/30 02:16:03;;;;;;;5.47;4.97;;;4.60;99.90;;;;;;5011908;28;21027;-69
2021/11/30 02:18:30;;;;;;;7.37;4.40;;;4.60;99.90;;;;;;5022516;28;20525;-67
2021/11/30 02:21:02;;;;;;;5.50;2.33;;;4.50;99.90;;;;;;5025711;28;20427;-69
2021/11/30 02:23:35;;;;;;;5.40;3.13;;;4.40;99.90;;;;;;5004990;28;20469;-66
2021/11/30 02:26:05;;;;;;;3.57;1.73;;;4.40;99.90;;;;;;4993039;28;20489;-67
2021/11/30 02:28:33;;;;;;;4.77;4.23;;;4.40;99.90;;;;;;5008188;28;20462;-68
2021/11/30 02:31:00;;;;;;;4.43;2.93;;;4.40;99.90;;;;;;5023104;28;20450;-68
2021/11/30 02:33:27;;;;;;;4.47;2.83;;;4.40;99.90;;;;;;5005686;28;20449;-66
2021/11/30 02:35:54;;;;;;;9.87;3.63;;;4.40;99.90;;;;;;5007640;28;20825;-67
2021/11/30 02:38:23;;;;;;;3.73;2.57;;;4.20;99.90;;;;;;5017857;28;20903;-68
2021/11/30 02:40:51;;;;;;;2.27;2.07;;;4.10;99.90;;;;;;5010776;28;20515;-69
2021/11/30 02:43:18;;;;;;;4.03;2.43;;;4.10;99.90;;;;;;5017169;28;20472;-66
2021/11/30 02:45:45;;;;;;;5.23;2.60;;;4.10;99.90;;;;;;5008213;28;20472;-67
2021/11/30 02:48:12;;;;;;;4.00;2.87;;;4.00;99.90;;;;;;5007895;28;20434;-66
2021/11/30 02:50:42;;;;;;;10.50;4.23;;;4.10;99.90;;;;;;5019804;28;20464;-67
2021/11/30 02:53:15;;;;;;;2.50;1.90;;;3.80;99.90;;;;;;5013242;28;21165;-67
2021/11/30 02:55:45;;;;;;;8.20;3.60;;;3.80;99.90;;;;;;5011589;28;20533;-66
2021/11/30 02:58:12;;;;;;;6.93;3.60;;;3.80;99.90;;;;;;5004550;28;20962;-66
2021/11/30 03:00:42;;;;;;;2.03;1.87;;;3.80;99.90;;;;;;5022875;28;20459;-67
2021/11/30 03:03:09;;;;;;;7.03;2.77;;;3.70;99.90;;;;;;5009816;28;20857;-66
2021/11/30 03:05:36;;;;;;;4.30;3.50;;;3.60;99.90;;;;;;5010689;28;20463;-68
2021/11/30 03:08:03;;;;;;;7.43;3.53;;;3.50;99.90;;;;;;5021278;28;20442;-67
2021/11/30 03:10:30;;;;;;;4.23;3.80;;;3.40;99.90;;;;;;5013771;28;20621;-69
2021/11/30 03:12:59;;;;;;;4.20;2.93;;;3.20;99.90;;;;;;5019791;28;20461;-67
2021/11/30 03:15:27;;;;;;;3.87;3.47;;;3.20;99.90;;;;;;5016125;28;20467;-66
2021/11/30 03:17:55;;;;;;;2.80;1.80;;;3.20;99.90;;;;;;5007557;28;20576;-68
2021/11/30 03:20:22;;;;;;;3.20;2.20;;;3.30;99.90;;;;;;5016656;28;20607;-68
2021/11/30 03:22:49;;;;;;;8.13;3.07;;;3.20;99.90;;;;;;5025396;28;20476;-68
2021/11/30 03:25:18;;;;;;;5.47;1.80;;;3.10;99.90;;;;;;5004745;28;20893;-67
2021/11/30 03:27:47;;;;;;;3.47;2.20;;;3.10;99.90;;;;;;5018693;28;20967;-69
2021/11/30 03:30:18;;;;;;;2.43;2.10;;;3.10;99.90;;;;;;5016314;28;20518;-67
2021/11/30 03:35:30;;;;;;;3.93;2.37;;;3.10;99.90;;;;;;5006016;28;20467;-67
2021/11/30 03:37:57;;;;;;;8.10;4.33;;;3.10;99.90;;;;;;5006795;28;20446;-69
2021/11/30 03:40:24;;;;;;;2.83;2.20;;;3.10;99.90;;;;;;5021548;28;20958;-68
2021/11/30 03:42:51;;;;;;;8.13;2.00;;;3.00;99.90;;;;;;5016798;28;20558;-68
2021/11/30 03:45:20;;;;;;;5.90;5.47;;;3.00;99.90;;;;;;5011858;28;20492;-67
2021/11/30 03:47:46;;;;;;;13.50;3.43;;;3.00;99.90;;;;;;5021257;28;20456;-68
2021/11/30 03:50:13;;;;;;;2.60;2.00;;;2.90;99.90;;;;;;5010681;28;20460;-68
2021/11/30 03:52:40;;;;;;;2.43;2.23;;;2.90;99.90;;;;;;5014917;28;20456;-67
2021/11/30 03:55:09;;;;;;;4.70;2.43;;;2.90;99.90;;;;;;5015069;28;20476;-68
2021/11/30 03:57:36;;;;;;;3.03;2.40;;;2.80;99.90;;;;;;5019493;28;20490;-68
2021/11/30 04:00:09;;;;;;;1.77;1.60;;;2.80;99.90;;;;;;5010726;28;20453;-68
2021/11/30 04:02:39;;;;;;;1.60;1.37;;;2.80;99.90;;;;;;5006657;28;20976;-67
2021/11/30 04:05:07;;;;;;;9.67;1.33;;;2.80;99.90;;;;;;5006004;28;20455;-68
2021/11/30 04:07:34;;;;;;;5.00;4.50;;;2.80;99.90;;;;;;5005133;28;20869;-68
2021/11/30 04:10:01;;;;;;;1.40;1.20;;;2.80;99.90;;;;;;5014231;28;20516;-68
2021/11/30 04:12:28;;;;;;;2.67;2.17;;;2.80;99.90;;;;;;5010634;28;20526;-67
2021/11/30 04:14:56;;;;;;;4.70;2.70;;;2.80;99.90;;;;;;4979344;28;21087;-66
2021/11/30 04:17:23;;;;;;;2.43;2.20;;;2.90;99.90;;;;;;5004485;28;20435;-66
2021/11/30 04:19:51;;;;;;;2.20;1.93;;;3.00;99.90;;;;;;5013505;28;21012;-66
2021/11/30 04:22:18;;;;;;;3.20;1.57;;;3.00;99.90;;;;;;5007840;28;20451;-67
2021/11/30 04:24:45;;;;;;;2.50;1.93;;;3.10;99.90;;;;;;4987882;28;20459;-67
2021/11/30 04:27:13;;;;;;;4.03;1.80;;;3.00;99.90;;;;;;5023240;28;20455;-66
2021/11/30 04:29:42;;;;;;;1.30;1.20;;;3.00;99.90;;;;;;5009672;28;20583;-67
2021/11/30 04:32:10;;;;;;;1.47;1.37;;;3.00;99.90;;;;;;5014068;28;20504;-68
2021/11/30 04:34:37;;;;;;;3.20;2.93;;;3.00;99.90;;;;;;5010160;28;20466;-67
2021/11/30 04:37:06;;;;;;;2.90;1.97;;;3.10;99.90;;;;;;5021537;28;20483;-67
2021/11/30 04:39:34;;;;;;;2.37;1.97;;;3.20;99.90;;;;;;5014146;28;21172;-68
2021/11/30 04:42:01;;;;;;;3.03;2.67;;;3.20;99.90;;;;;;5013988;28;20532;-67
2021/11/30 04:44:32;;;;;;;2.60;2.40;;;3.20;99.90;;;;;;5000462;28;20499;-65
2021/11/30 04:47:02;;;;;;;2.30;1.40;;;3.30;99.90;;;;;;4999901;28;20458;-66
2021/11/30 04:49:42;;;;;;;2.90;2.70;;;3.30;99.90;;;;;;5007380;28;20427;-66
2021/11/30 04:52:13;;;;;;;1.87;1.77;;;3.30;99.90;;;;;;5002981;28;20457;-67
2021/11/30 04:54:40;;;;;;;2.20;1.63;;;3.30;99.90;;;;;;5010502;28;20828;-67
2021/11/30 04:57:08;;;;;;;2.00;1.90;;;3.50;99.90;;;;;;5016685;28;20430;-67
2021/11/30 04:59:35;;;;;;;1.37;1.20;;;3.50;99.90;;;;;;5019391;28;20453;-68
2021/11/30 05:02:02;;;;;;;1.83;1.60;;;3.60;99.90;;;;;;5016119;28;20427;-68
2021/11/30 05:04:30;;;;;;;1.40;1.30;;;3.60;99.90;;;;;;5022019;28;20534;-67
2021/11/30 05:06:57;;;;;;;2.53;2.33;;;3.70;99.90;;;;;;5022010;28;23203;-66
2021/11/30 05:09:26;;;;;;;4.90;3.00;;;3.80;99.90;;;;;;5016001;28;20484;-67
2021/11/30 05:11:53;;;;;;;1.53;1.43;;;3.90;99.90;;;;;;5008849;28;20471;-67
2021/11/30 05:14:21;;;;;;;3.73;3.43;;;3.90;99.90;;;;;;5003760;28;20451;-65
2021/11/30 05:16:48;;;;;;;4.43;2.73;;;4.00;99.90;;;;;;5010097;28;20488;-68
2021/11/30 05:19:15;;;;;;;3.63;2.30;;;4.10;99.90;;;;;;5026179;28;20586;-67
2021/11/30 05:21:42;;;;;;;3.00;2.70;;;4.10;99.90;;;;;;5018881;28;20552;-67
2021/11/30 05:24:10;;;;;;;2.87;2.57;;;4.20;99.90;;;;;;5011701;28;20548;-68
2021/11/30 05:26:39;;;;;;;2.93;2.57;;;4.30;99.90;;;;;;5007305;28;20575;-66
2021/11/30 05:29:06;;;;;;;2.17;1.60;;;4.30;99.90;;;;;;4997328;28;20582;-67
2021/11/30 05:31:34;;;;;;;4.07;3.37;;;4.30;99.90;;;;;;5008297;28;20517;-67
2021/11/30 05:34:01;;;;;;;5.30;3.47;;;4.40;99.90;;;;;;5027444;28;20473;-67
2021/11/30 05:36:29;;;;;;;5.77;4.40;;;4.40;99.90;;;;;;5025447;28;20464;-67
2021/11/30 05:38:56;;;;;;;6.57;5.07;;;4.40;99.90;;;;;;5023666;28;20501;-67
2021/11/30 05:41:23;;;;;;;2.97;2.47;;;4.40;99.90;;;;;;5020719;28;21208;-67
2021/11/30 05:43:52;;;;;;;7.37;4.60;;;4.50;99.90;;;;;;5013491;28;20890;-66
2021/11/30 05:46:19;;;;;;;5.20;3.23;;;4.50;99.90;;;;;;5015369;28;20997;-68
2021/11/30 05:48:47;;;;;;;3.77;2.93;;;4.50;99.90;;;;;;5022281;28;20492;-68
2021/11/30 05:51:14;;;;;;;4.93;3.60;;;4.60;99.90;;;;;;5023111;28;20443;-68
2021/11/30 05:53:41;;;;;;;3.63;2.50;;;4.60;99.90;;;;;;5023428;28;20518;-68
2021/11/30 05:56:08;;;;;;;5.37;3.73;;;4.60;99.90;;;;;;5020624;28;20457;-68
2021/11/30 05:58:38;;;;;;;5.07;3.97;;;4.70;99.90;;;;;;5017852;28;21115;-69
2021/11/30 06:01:10;;;;;;;4.70;3.90;;;4.70;99.90;;;;;;5012845;28;20543;-68
2021/11/30 06:03:56;;;;;;;6.63;3.20;;;4.70;99.90;;;;;;5025087;28;20461;-68
2021/11/30 06:06:23;;;;;;;6.40;4.50;;;4.80;99.90;;;;;;5013452;28;21016;-69
2021/11/30 06:08:50;;;;;;;2.60;2.20;;;4.80;99.90;;;;;;5011061;28;20581;-66
2021/11/30 06:11:18;;;;;;;5.27;4.40;;;4.90;99.90;;;;;;5006121;28;20459;-67
2021/11/30 06:13:45;;;;;;;2.83;2.40;;;5.00;99.90;;;;;;5021191;28;20484;-68
2021/11/30 06:16:14;;;;;;;3.43;3.17;;;5.00;99.90;;;;;;5018570;28;20464;-67
2021/11/30 06:18:41;;;;;;;6.30;4.17;;;5.00;99.90;;;;;;5017691;28;20485;-67
2021/11/30 06:21:08;;;;;;;7.67;4.60;;;5.00;99.90;;;;;;5015224;28;20503;-68
2021/11/30 06:23:35;;;;;;;1.90;1.43;;;5.00;99.90;;;;;;5020422;28;20459;-68
2021/11/30 06:26:02;;;;;;;7.13;4.73;;;5.00;99.90;;;;;;5021674;28;20558;-68
2021/11/30 06:28:29;;;;;;;7.50;4.27;;;5.10;99.90;;;;;;5023323;28;20492;-68
2021/11/30 06:30:56;;;;;;;5.30;4.70;;;5.00;99.90;;;;;;5020164;28;20467;-69
2021/11/30 06:33:24;;;;;;;2.23;2.03;;;5.10;99.90;;;;;;5015041;28;20446;-66
2021/11/30 06:35:51;;;;;;;6.03;4.50;;;5.20;99.90;;;;;;5015790;28;20458;-68
2021/11/30 06:38:18;;;;;;;8.80;3.60;;;5.10;99.90;;;;;;5023730;28;20517;-68
2021/11/30 06:40:45;;;;;;;3.30;2.70;;;5.20;99.90;;;;;;5012489;28;20541;-68
2021/11/30 06:43:13;;;;;;;6.70;4.10;;;5.20;99.90;;;;;;5013458;28;20561;-68
2021/11/30 06:45:40;;;;;;;5.10;2.80;;;5.30;99.90;;;;;;5019918;28;20984;-68
2021/11/30 06:48:07;;;;;;;6.30;5.53;;;5.30;99.90;;;;;;5009341;28;20500;-68
2021/11/30 06:50:36;;;;;;;6.37;3.17;;;5.30;99.90;;;;;;5016932;28;20434;-69
2021/11/30 06:53:04;;;;;;;4.37;2.80;;;5.30;99.90;;;;;;5012892;28;20428;-69
2021/11/30 06:55:31;;;;;;;4.47;2.97;;;5.40;99.90;;;;;;5017607;28;20455;-68
2021/11/30 06:57:58;;;;;;;4.40;3.17;;;5.40;99.90;;;;;;5022951;28;20505;-69
2021/11/30 07:00:25;;;;;;;3.80;3.40;;;5.40;99.90;;;;;;5023140;28;20468;-67
2021/11/30 07:02:53;;;;;;;7.30;4.23;;;5.50;99.90;;;;;;5024627;28;20835;-68
2021/11/30 07:05:22;;;;;;;2.70;2.50;;;5.50;99.90;;;;;;5020112;28;20575;-69
2021/11/30 07:07:57;;;;;;;4.17;3.03;;;5.50;99.90;;;;;;5022674;28;20492;-68
2021/11/30 07:10:36;;;;;;;3.03;2.73;;;5.60;99.90;;;;;;5015644;28;20488;-68
2021/11/30 07:13:16;;;;;;;6.50;4.97;;;5.60;99.90;;;;;;5024286;28;20468;-69
2021/11/30 07:15:43;;;;;;;4.37;2.70;;;5.60;99.90;;;;;;5021936;28;20559;-69
2021/11/30 07:18:11;;;;;;;4.80;4.30;;;5.60;99.90;;;;;;5017983;28;20547;-69
2021/11/30 07:20:38;;;;;;;5.07;3.90;;;5.70;99.90;;;;;;5008244;28;20458;-67
2021/11/30 07:23:07;;;;;;;6.23;3.10;;;5.80;99.90;;;;;;5026533;28;20964;-68
2021/11/30 07:25:34;;;;;;;3.33;2.60;;;5.90;99.90;;;;;;5020861;28;20998;-68
2021/11/30 07:28:02;;;;;;;4.17;3.47;;;5.90;99.90;;;;;;5015615;28;20490;-67
2021/11/30 07:30:29;;;;;;;4.67;3.73;;;5.90;99.90;;;;;;5015962;28;20530;-68
2021/11/30 07:32:56;;;;;;;7.40;4.93;;;6.00;99.90;;;;;;5022989;28;20459;-67
2021/11/30 07:35:25;;;;;;;6.87;4.80;;;6.00;99.90;;;;;;5019276;28;20529;-67
2021/11/30 07:37:52;;;;;;;4.60;2.67;;;6.10;99.90;;;;;;5025980;28;20407;-68
2021/11/30 07:40:21;;;;;;;5.90;2.33;;;6.10;99.90;;;;;;5035790;28;20605;-69
2021/11/30 07:42:48;;;;;;;8.30;3.77;;;6.20;99.90;;;;;;5032185;28;20457;-67
2021/11/30 07:45:16;;;;;;;5.03;3.83;;;6.20;99.90;;;;;;5010821;28;20482;-67
2021/11/30 07:47:43;;;;;;;4.70;3.97;;;6.30;99.90;;;;;;5015685;28;20506;-68
2021/11/30 07:50:11;;;;;;;8.40;3.20;;;6.30;99.90;;;;;;5010382;28;20555;-67
2021/11/30 07:52:41;;;;;;;7.17;4.13;;;6.40;99.90;;;;;;5009545;28;20456;-68
2021/11/30 07:55:09;;;;;;;11.73;5.53;;;6.50;99.90;;;;;;5001338;28;20499;-69
2021/11/30 07:57:38;;;;;;;9.97;4.93;;;6.60;99.90;;;;;;5022929;28;20534;-69
2021/11/30 08:00:07;;;;;;;3.90;3.60;;;6.60;99.90;;;;;;5013147;28;20465;-69
2021/11/30 08:02:34;;;;;;;5.37;3.47;;;6.60;99.90;;;;;;5023648;28;20472;-69
2021/11/30 08:05:01;;;;;;;9.80;6.60;;;6.70;99.90;;;;;;5021384;28;20503;-69
2021/11/30 08:07:28;;;;;;;10.20;6.33;;;6.70;99.90;;;;;;4992179;28;20467;-69
2021/11/30 08:09:56;;;;;;;8.70;5.63;;;6.80;99.90;;;;;;5019637;28;20485;-69
2021/11/30 08:12:23;;;;;;;4.73;3.53;;;6.80;99.90;;;;;;5026615;28;21189;-69
2021/11/30 08:14:51;;;;;;;9.27;4.37;;;6.90;99.90;;;;;;5017058;28;20959;-69
2021/11/30 08:17:19;;;;;;;6.00;5.20;;;6.90;99.90;;;;;;5021957;28;20485;-68
2021/11/30 08:19:47;;;;;;;10.33;5.27;;;6.90;99.90;;;;;;5025246;28;20466;-69
2021/11/30 08:22:15;;;;;;;9.70;5.00;;;6.90;99.90;;;;;;5019021;28;20773;-69
2021/11/30 08:24:42;;;;;;;8.47;4.50;;;7.00;99.90;;;;;;5020772;28;20925;-69
2021/11/30 08:27:10;;;;;;;5.27;3.07;;;7.00;99.90;;;;;;5020198;28;20477;-69
2021/11/30 08:29:39;;;;;;;2.80;2.50;;;7.10;99.90;;;;;;5020714;28;20439;-70
2021/11/30 08:32:09;;;;;;;8.80;3.43;;;7.10;99.90;;;;;;5007532;28;20979;-67
2021/11/30 08:34:38;;;;;;;6.43;3.70;;;7.10;99.90;;;;;;5024169;28;20809;-67
2021/11/30 08:37:05;;;;;;;4.23;3.63;;;7.10;99.90;;;;;;5011679;28;20967;-67
2021/11/30 08:39:33;;;;;;;4.90;2.73;;;7.10;99.90;;;;;;5018572;28;20460;-68
2021/11/30 08:42:02;;;;;;;5.00;3.47;;;7.10;99.90;;;;;;5011570;28;20449;-68
2021/11/30 08:44:29;;;;;;;5.37;4.30;;;7.20;99.90;;;;;;5019943;28;20547;-68
2021/11/30 08:46:58;;;;;;;5.97;3.57;;;7.20;99.90;;;;;;5016464;28;20463;-65
2021/11/30 08:49:27;;;;;;;5.70;5.20;;;7.20;99.90;;;;;;5022001;28;20466;-67
2021/11/30 08:51:56;;;;;;;4.50;2.90;;;7.20;99.90;;;;;;5023719;28;22999;-68
2021/11/30 08:54:23;;;;;;;4.47;2.23;;;7.20;99.90;;;;;;5009635;28;20558;-67
2021/11/30 08:56:50;;;;;;;3.83;1.63;;;7.20;99.90;;;;;;5003560;28;20453;-66
2021/11/30 08:59:17;;;;;;;5.67;3.43;;;7.20;99.90;;;;;;5000976;28;20496;-65
2021/11/30 09:01:44;;;;;;;6.33;3.37;;;7.30;99.90;;;;;;5027832;28;20477;-68
2021/11/30 09:04:12;;;;;;;6.90;2.97;;;7.30;99.90;;;;;;5021380;28;20476;-68
2021/11/30 09:06:40;;;;;;;4.93;2.27;;;7.30;99.90;;;;;;5024094;28;20855;-68
2021/11/30 09:09:09;;;;;;;5.27;3.87;;;7.30;99.90;;;;;;5023472;28;20976;-68
2021/11/30 09:11:36;;;;;;;5.33;3.67;;;7.30;99.90;;;;;;5024494;28;20431;-68
2021/11/30 09:14:04;;;;;;;3.70;2.80;;;7.40;99.90;;;;;;5021349;28;20584;-68
2021/11/30 09:16:31;;;;;;;5.10;3.93;;;7.30;99.90;;;;;;5027545;28;20460;-68
2021/11/30 09:18:59;;;;;;;6.03;3.93;;;7.40;99.90;;;;;;5027322;28;20439;-68
2021/11/30 09:21:27;;;;;;;3.53;2.53;;;7.50;99.90;;;;;;5034373;28;20477;-69
2021/11/30 09:23:57;;;;;;;4.37;4.07;;;7.50;99.90;;;;;;5035505;28;20858;-68
2021/11/30 09:26:24;;;;;;;6.10;4.23;;;7.50;99.90;;;;;;5022519;28;20491;-69
2021/11/30 09:28:51;;;;;;;5.27;3.17;;;7.50;99.90;;;;;;5025968;28;20860;-69
2021/11/30 09:31:18;;;;;;;7.87;4.33;;;7.50;99.90;;;;;;5025741;28;20492;-69
2021/11/30 09:33:46;;;;;;;3.80;2.67;;;7.50;99.90;;;;;;5030376;28;20472;-69
2021/11/30 09:36:15;;;;;;;4.00;3.47;;;7.60;99.90;;;;;;5009917;28;20898;-69
2021/11/30 09:38:43;;;;;;;6.60;4.47;;;7.60;99.90;;;;;;5020151;28;20760;-68
2021/11/30 09:41:12;;;;;;;7.87;3.63;;;7.60;99.90;;;;;;5028039;28;20448;-68
2021/11/30 09:43:39;;;;;;;8.53;4.10;;;7.70;99.90;;;;;;5018675;28;20951;-68
2021/11/30 09:46:07;;;;;;;3.27;3.03;;;7.70;99.90;;;;;;5032771;28;20429;-68
2021/11/30 09:48:35;;;;;;;3.93;3.60;;;7.60;99.90;;;;;;5022492;28;20553;-67
2021/11/30 09:51:03;;;;;;;7.67;2.80;;;7.70;99.90;;;;;;5032121;28;20482;-67
2021/11/30 09:53:30;;;;;;;3.60;3.03;;;7.70;99.90;;;;;;5022975;28;20489;-68
2021/11/30 09:55:57;;;;;;;3.20;2.50;;;7.70;99.90;;;;;;5025588;28;20435;-68
2021/11/30 09:58:26;;;;;;;5.30;4.60;;;7.70;99.90;;;;;;5027692;28;20496;-68
2021/11/30 10:00:57;;;;;;;5.40;4.00;;;7.70;99.90;;;;;;5027525;28;20431;-68
2021/11/30 10:03:25;;;;;;;6.37;3.93;;;7.70;99.90;;;;;;5024049;28;20457;-69
2021/11/30 10:05:54;;;;;;;3.07;2.40;;;7.80;99.90;;;;;;5027596;28;20579;-69
2021/11/30 10:08:33;;;;;;;8.27;4.70;;;7.80;99.90;;;;;;5026330;28;20451;-69
2021/11/30 10:11:01;;;;;;;9.33;5.07;;;7.90;99.90;;;;;;5023393;28;20464;-69
2021/11/30 10:13:29;;;;;;;6.73;5.60;;;7.80;99.90;;;;;;5029379;28;20431;-70
2021/11/30 10:16:01;;;;;;;3.83;3.53;;;7.80;99.90;;;;;;5028794;28;20461;-69
2021/11/30 10:18:31;;;;;;;14.03;7.10;;;7.90;99.90;;;;;;5027567;28;20543;-69
2021/11/30 10:21:19;;;;;;;3.40;2.50;;;7.90;99.90;;;;;;5027180;28;20442;-68
2021/11/30 10:23:47;;;;;;;6.07;4.37;;;7.90;99.90;;;;;;5024699;28;20509;-69
2021/11/30 10:26:14;;;;;;;4.60;4.10;;;7.90;99.90;;;;;;5019483;28;21022;-69
2021/11/30 10:28:43;;;;;;;5.80;4.10;;;7.90;99.90;;;;;;5030739;28;20526;-69
2021/11/30 10:31:10;;;;;;;5.63;3.53;;;8.00;99.90;;;;;;5027313;28;20852;-69
2021/11/30 10:33:38;;;;;;;8.37;4.30;;;8.00;99.90;;;;;;5022580;28;20530;-69
2021/11/30 10:36:06;;;;;;;13.70;6.43;;;8.00;99.90;;;;;;5005882;28;20488;-69
2021/11/30 10:38:36;;;;;;;3.03;2.70;;;8.00;99.90;;;;;;5027360;28;20456;-68
2021/11/30 10:41:17;;;;;;;2.63;2.43;;;8.00;99.90;;;;;;5029902;28;20817;-68
2021/11/30 10:43:53;;;;;;;4.97;3.90;;;8.00;99.90;;;;;;5022286;28;20487;-67
2021/11/30 10:46:25;;;;;;;10.53;3.77;;;8.10;99.90;;;;;;5028845;28;20496;-68
2021/11/30 10:48:52;;;;;;;5.50;3.80;;;8.10;99.90;;;;;;5026349;28;20984;-68
2021/11/30 10:51:19;;;;;;;6.23;3.60;;;8.10;99.90;;;;;;5031148;28;20529;-68
2021/11/30 10:53:49;;;;;;;8.10;5.60;;;8.20;99.90;;;;;;5024122;28;20477;-69
2021/11/30 10:56:19;;;;;;;6.43;4.53;;;8.20;99.90;;;;;;5028267;28;20430;-70
2021/11/30 10:58:48;;;;;;;7.40;3.70;;;8.20;99.90;;;;;;5032289;28;20444;-68
2021/11/30 11:01:18;;;;;;;8.50;4.00;;;8.20;99.90;;;;;;5030781;28;20460;-68
2021/11/30 11:03:46;;;;;;;4.80;3.53;;;8.20;99.90;;;;;;5023166;28;20513;-68
2021/11/30 11:06:32;;;;;;;3.53;2.83;;;8.20;99.90;;;;;;4998467;28;20439;-68
2021/11/30 11:09:03;;;;;;;2.30;2.10;;;8.20;99.90;;;;;;5028422;28;21043;-68
2021/11/30 11:11:32;;;;;;;3.47;2.00;;;8.20;99.90;;;;;;5023397;28;20434;-68
2021/11/30 11:14:00;;;;;;;2.87;1.23;;;8.30;99.90;;;;;;5034982;28;20454;-69
2021/11/30 11:16:33;;;;;;;1.50;0.90;;;8.30;99.90;;;;;;5024965;28;20557;-68
2021/11/30 11:19:02;;;;;;;1.10;1.00;;;8.40;99.90;;;;;;5022247;28;20484;-66
2021/11/30 11:21:30;;;;;;;1.67;1.30;;;8.40;99.90;;;;;;5029942;28;21012;-68
2021/11/30 11:24:07;;;;;;;1.30;0.80;;;8.40;99.90;;;;;;5025021;28;20979;-69
2021/11/30 11:26:38;;;;;;;1.67;1.43;;;8.50;99.90;;;;;;5012544;28;20525;-68
2021/11/30 11:29:09;;;;;;;1.93;1.40;;;8.50;99.90;;;;;;5010449;28;20506;-67
2021/11/30 11:31:37;;;;;;;5.53;1.67;;;8.50;99.90;;;;;;5014292;28;20466;-69
2021/11/30 11:34:05;;;;;;;1.70;1.57;;;8.50;99.90;;;;;;5007714;28;20520;-67
2021/11/30 11:36:33;;;;;;;2.93;2.10;;;8.60;99.90;;;;;;5013202;28;20818;-68
2021/11/30 11:39:01;;;;;;;1.30;1.20;;;8.60;99.90;;;;;;5008001;28;20625;-69
2021/11/30 11:41:29;;;;;;;4.10;1.47;;;8.60;99.90;;;;;;5022378;28;20460;-68
2021/11/30 11:43:58;;;;;;;1.87;1.10;;;8.60;99.90;;;;;;5018586;28;20492;-68
2021/11/30 11:46:28;;;;;;;1.43;0.80;;;8.70;99.90;;;;;;5014123;28;20492;-68
2021/11/30 11:48:59;;;;;;;1.10;0.80;;;8.70;99.90;;;;;;5016830;28;20485;-64
2021/11/30 11:51:37;;;;;;;1.27;1.00;;;8.60;99.90;;;;;;5026813;28;20452;-70
2021/11/30 11:54:06;;;;;;;1.23;1.00;;;8.60;99.90;;;;;;5011444;28;20601;-67
2021/11/30 11:56:35;;;;;;;1.00;0.80;;;8.60;99.90;;;;;;5018087;28;20541;-68
2021/11/30 11:59:15;;;;;;;1.40;0.90;;;8.50;99.90;;;;;;5015618;28;20453;-68
2021/11/30 12:01:46;;;;;;;2.13;1.87;;;8.60;99.90;;;;;;5019120;28;20480;-68
2021/11/30 12:04:15;;;;;;;8.60;1.93;;;8.50;99.90;;;;;;5023315;28;20529;-68
2021/11/30 12:06:53;;;;;;;2.53;1.40;;;8.50;99.90;;;;;;5022672;28;20466;-69
2021/11/30 12:09:31;;;;;;;1.00;0.90;;;8.50;99.90;;;;;;5015229;28;20852;-67
2021/11/30 12:12:00;;;;;;;1.67;1.53;;;8.50;99.90;;;;;;5021775;28;20550;-68
2021/11/30 12:14:33;;;;;;;2.10;1.27;;;8.50;99.90;;;;;;5012646;28;20578;-66
2021/11/30 12:17:15;;;;;;;2.07;0.90;;;8.40;99.90;;;;;;5010877;28;20502;-67
2021/11/30 12:19:45;;;;;;;2.27;0.90;;;8.40;99.90;;;;;;5021393;28;20452;-68
2021/11/30 12:22:14;;;;;;;2.70;1.20;;;8.40;99.90;;;;;;5021659;28;20462;-67
2021/11/30 12:24:44;;;;;;;3.13;1.50;;;8.40;99.90;;;;;;5025204;28;20977;-67
2021/11/30 12:27:42;;;;;;;5.70;1.60;;;8.50;99.90;;;;;;5010873;28;20460;-68
2021/11/30 12:30:28;;;;;;;2.50;1.33;;;8.50;99.90;;;;;;5028807;28;20494;-68
2021/11/30 12:32:56;;;;;;;1.20;1.10;;;8.40;99.90;;;;;;5017521;28;20480;-67
2021/11/30 12:35:23;;;;;;;1.77;1.37;;;8.50;99.90;;;;;;5009929;28;21157;-68
2021/11/30 12:38:17;;;;;;;2.30;1.30;;;8.50;99.90;;;;;;5010057;28;20456;-67
2021/11/30 12:40:48;;;;;;;1.00;0.90;;;8.40;99.90;;;;;;5017317;28;20442;-69
2021/11/30 12:43:19;;;;;;;3.00;1.40;;;8.40;99.90;;;;;;5014871;28;20464;-68
2021/11/30 12:45:48;;;;;;;1.13;1.03;;;8.50;99.90;;;;;;5021210;28;20484;-67
2021/11/30 12:48:22;;;;;;;1.40;1.00;;;8.50;99.90;;;;;;5001800;28;20480;-68
2021/11/30 12:50:56;;;;;;;1.23;1.13;;;8.60;99.90;;;;;;5022106;28;20452;-68
2021/11/30 12:53:42;;;;;;;3.30;1.17;;;8.50;99.90;;;;;;5013219;28;21151;-68
2021/11/30 12:56:09;;;;;;;1.23;1.00;;;8.40;99.90;;;;;;5010756;28;20550;-68
2021/11/30 12:58:45;;;;;;;1.77;1.00;;;8.40;99.90;;;;;;4998763;28;20471;-68
2021/11/30 13:01:17;;;;;;;1.10;1.00;;;8.40;99.90;;;;;;5014486;28;20539;-68
2021/11/30 13:03:46;;;;;;;2.00;1.53;;;8.50;99.90;;;;;;5024935;28;20476;-69
2021/11/30 13:06:13;;;;;;;1.57;1.00;;;8.50;99.90;;;;;;5019026;28;20953;-69
2021/11/30 13:09:04;;;;;;;2.90;0.80;;;8.60;99.90;;;;;;5020334;28;20496;-69
2021/11/30 13:11:33;;;;;;;2.90;1.67;;;8.40;99.90;;;;;;5025982;28;20526;-69
2021/11/30 13:14:03;;;;;;;1.10;0.90;;;8.40;99.90;;;;;;5029168;28;20472;-69
2021/11/30 13:16:32;;;;;;;1.37;1.27;;;8.50;99.90;;;;;;5011048;28;20432;-70